createdAt,value
2023-02-26T00:00:14.862Z,102051.13
2023-02-26T00:02:42.174Z,102046.97
2023-02-26T00:05:09.272Z,102049.41
2023-02-26T00:07:36.047Z,102056.81
2023-02-26T00:10:02.927Z,102050.75
2023-02-26T00:12:30.294Z,102053.50
2023-02-26T00:14:57.229Z,102062.63
2023-02-26T00:17:49.090Z,102068.19
2023-02-26T00:20:17.262Z,102077.91
2023-02-26T00:22:44.616Z,102079.88
2023-02-26T00:25:12.350Z,102079.97
2023-02-26T00:27:39.381Z,102084.59
2023-02-26T00:30:08.569Z,102084.69
2023-02-26T00:32:36.206Z,102082.97
2023-02-26T00:35:03.161Z,102091.13
2023-02-26T00:38:04.554Z,102100.19
2023-02-26T00:40:47.336Z,102109.31
2023-02-26T00:43:19.154Z,102124.50
2023-02-26T00:45:57.846Z,102124.72
2023-02-26T00:48:50.711Z,102125.78
2023-02-26T00:51:27.980Z,102121.41
2023-02-26T00:54:15.481Z,102121.50
2023-02-26T00:56:42.120Z,102126.97
2023-02-26T00:59:08.731Z,102136.94
2023-02-26T01:01:35.330Z,102133.50
2023-02-26T01:04:02.199Z,102134.47
2023-02-26T01:06:33.266Z,102137.34
2023-02-26T01:09:15.715Z,102133.06
2023-02-26T01:11:42.484Z,102137.47
2023-02-26T01:14:09.364Z,102136.72
2023-02-26T01:16:48.556Z,102141.31
2023-02-26T01:19:30.627Z,102145.91
2023-02-26T01:22:07.576Z,102146.03
2023-02-26T01:24:36.438Z,102156.72
2023-02-26T01:27:03.605Z,102155.94
2023-02-26T01:29:30.266Z,102150.72
2023-02-26T01:32:21.172Z,102160.78
2023-02-26T01:34:53.714Z,102168.78
2023-02-26T01:37:32.292Z,102168.91
2023-02-26T01:40:24.179Z,102169.00
2023-02-26T01:42:54.500Z,102178.84
2023-02-26T01:45:31.539Z,102180.75
2023-02-26T01:48:06.852Z,102177.28
2023-02-26T01:50:36.735Z,102176.44
2023-02-26T01:53:24.587Z,102179.31
2023-02-26T01:56:17.197Z,102180.28
2023-02-26T01:58:46.797Z,102180.28
2023-02-26T02:01:13.342Z,102191.94
2023-02-26T02:03:43.085Z,102190.31
2023-02-26T02:06:16.550Z,102202.00
2023-02-26T02:08:43.383Z,102205.63
2023-02-26T02:11:12.405Z,102209.22
2023-02-26T02:13:57.360Z,102211.16
2023-02-26T02:16:46.584Z,102215.66
2023-02-26T02:19:34.937Z,102209.47
2023-02-26T02:22:27.205Z,102210.50
2023-02-26T02:25:09.036Z,102216.59
2023-02-26T02:27:51.920Z,102210.50
2023-02-26T02:30:26.474Z,102217.69
2023-02-26T02:33:03.513Z,102218.53
2023-02-26T02:35:41.473Z,102219.59
2023-02-26T02:38:16.500Z,102218.72
2023-02-26T02:40:48.893Z,102212.53
2023-02-26T02:43:17.690Z,102218.72
2023-02-26T02:45:49.197Z,102226.00
2023-02-26T02:48:26.079Z,102226.94
2023-02-26T02:51:00.151Z,102232.28
2023-02-26T02:53:34.290Z,102229.72
2023-02-26T02:56:15.770Z,102236.03
2023-02-26T02:58:55.171Z,102237.84
2023-02-26T03:01:25.792Z,102245.09
2023-02-26T03:04:00.621Z,102253.13
2023-02-26T03:06:27.207Z,102255.91
2023-02-26T03:08:54.387Z,102256.84
2023-02-26T03:11:22.243Z,102256.94
2023-02-26T03:13:50.542Z,102249.91
2023-02-26T03:16:39.594Z,102251.81
2023-02-26T03:19:27.765Z,102248.38
2023-02-26T03:21:58.237Z,102254.59
2023-02-26T03:24:51.833Z,102268.06
2023-02-26T03:27:40.157Z,102263.75
2023-02-26T03:30:15.971Z,102264.63
2023-02-26T03:32:53.522Z,102256.72
2023-02-26T03:35:52.002Z,102271.09
2023-02-26T03:38:37.946Z,102264.91
2023-02-26T03:41:11.109Z,102277.41
2023-02-26T03:43:46.185Z,102281.06
2023-02-26T03:46:19.387Z,102297.06
2023-02-26T03:48:51.264Z,102289.16
2023-02-26T03:51:19.047Z,102293.63
2023-02-26T03:53:58.550Z,102288.47
2023-02-26T03:56:40.506Z,102290.28
2023-02-26T03:59:07.687Z,102296.50
2023-02-26T04:01:44.221Z,102300.25
2023-02-26T04:04:16.821Z,102304.63
2023-02-26T04:06:44.327Z,102306.44
2023-02-26T04:09:11.893Z,102308.25
2023-02-26T04:11:39.737Z,102314.53
2023-02-26T04:14:06.345Z,102316.34
2023-02-26T04:16:32.889Z,102321.69
2023-02-26T04:18:59.407Z,102321.69
2023-02-26T04:21:25.918Z,102330.53
2023-02-26T04:23:52.478Z,102327.97
2023-02-26T04:26:19.003Z,102322.75
2023-02-26T04:28:45.513Z,102330.75
2023-02-26T04:31:12.280Z,102332.56
2023-02-26T04:33:38.981Z,102332.66
2023-02-26T04:36:05.979Z,102344.19
2023-02-26T04:38:32.740Z,102343.34
2023-02-26T04:40:59.265Z,102345.25
2023-02-26T04:43:25.857Z,102348.84
2023-02-26T04:45:52.448Z,102344.50
2023-02-26T04:48:19.092Z,102352.50
2023-02-26T04:50:45.902Z,102350.78
2023-02-26T04:53:12.802Z,102356.13
2023-02-26T04:55:41.025Z,102350.13
2023-02-26T04:58:08.410Z,102349.16
2023-02-26T05:00:35.377Z,102351.81
2023-02-26T05:03:01.900Z,102359.94
2023-02-26T05:05:28.423Z,102352.00
2023-02-26T05:07:56.774Z,102359.16
2023-02-26T05:10:24.116Z,102369.84
2023-02-26T05:12:50.670Z,102377.97
2023-02-26T05:15:17.279Z,102379.78
2023-02-26T05:17:43.875Z,102387.88
2023-02-26T05:20:11.078Z,102387.00
2023-02-26T05:22:38.831Z,102391.50
2023-02-26T05:25:06.317Z,102399.59
2023-02-26T05:27:33.567Z,102402.28
2023-02-26T05:30:00.211Z,102400.56
2023-02-26T05:32:27.157Z,102408.56
2023-02-26T05:34:53.785Z,102413.03
2023-02-26T05:37:20.267Z,102414.84
2023-02-26T05:39:46.785Z,102412.19
2023-02-26T05:42:13.278Z,102414.84
2023-02-26T05:44:39.764Z,102423.72
2023-02-26T05:47:06.597Z,102417.50
2023-02-26T05:49:33.186Z,102417.50
2023-02-26T05:51:59.805Z,102432.69
2023-02-26T05:54:26.463Z,102435.34
2023-02-26T05:56:53.032Z,102439.81
2023-02-26T05:59:19.513Z,102446.13
2023-02-26T06:01:46.791Z,102452.44
2023-02-26T06:04:13.435Z,102456.03
2023-02-26T06:06:39.992Z,102458.69
2023-02-26T06:09:06.552Z,102463.28
2023-02-26T06:11:34.078Z,102457.94
2023-02-26T06:14:00.861Z,102466.03
2023-02-26T06:16:28.193Z,102470.50
2023-02-26T06:18:54.961Z,102475.84
2023-02-26T06:21:21.530Z,102476.81
2023-02-26T06:23:48.058Z,102483.94
2023-02-26T06:26:14.663Z,102480.44
2023-02-26T06:28:41.772Z,102480.44
2023-02-26T06:31:08.317Z,102491.19
2023-02-26T06:33:34.837Z,102487.75
2023-02-26T06:36:02.376Z,102493.16
2023-02-26T06:38:29.228Z,102498.44
2023-02-26T06:40:55.852Z,102501.16
2023-02-26T06:43:22.710Z,102504.78
2023-02-26T06:45:49.629Z,102505.66
2023-02-26T06:48:16.258Z,102506.63
2023-02-26T06:50:42.822Z,102504.91
2023-02-26T06:53:09.660Z,102514.72
2023-02-26T06:55:36.255Z,102512.97
2023-02-26T06:58:02.787Z,102528.13
2023-02-26T07:00:29.334Z,102523.75
2023-02-26T07:02:56.124Z,102527.38
2023-02-26T07:05:22.848Z,102533.56
2023-02-26T07:07:49.379Z,102534.53
2023-02-26T07:10:15.995Z,102539.94
2023-02-26T07:12:42.672Z,102542.59
2023-02-26T07:15:09.573Z,102544.41
2023-02-26T07:17:36.288Z,102543.56
2023-02-26T07:20:06.553Z,102549.84
2023-02-26T07:22:33.862Z,102552.53
2023-02-26T07:25:00.468Z,102553.38
2023-02-26T07:27:27.233Z,102556.91
2023-02-26T07:29:53.737Z,102568.44
2023-02-26T07:32:20.304Z,102561.28
2023-02-26T07:34:46.961Z,102568.44
2023-02-26T07:37:13.692Z,102576.38
2023-02-26T07:39:40.325Z,102583.47
2023-02-26T07:42:06.870Z,102574.63
2023-02-26T07:44:33.730Z,102583.41
2023-02-26T07:47:00.271Z,102587.03
2023-02-26T07:49:26.803Z,102583.41
2023-02-26T07:51:53.614Z,102594.09
2023-02-26T07:54:20.498Z,102594.84
2023-02-26T07:56:47.079Z,102593.81
2023-02-26T07:59:13.676Z,102598.03
2023-02-26T08:01:40.268Z,102595.09
2023-02-26T08:04:07.165Z,102605.50
2023-02-26T08:06:34.576Z,102615.03
2023-02-26T08:09:02.371Z,102613.00
2023-02-26T08:11:29.216Z,102618.91
2023-02-26T08:13:55.750Z,102621.31
2023-02-26T08:16:22.258Z,102621.03
2023-02-26T08:18:48.788Z,102632.28
2023-02-26T08:21:15.379Z,102629.28
2023-02-26T08:23:41.886Z,102635.97
2023-02-26T08:26:10.252Z,102639.06
2023-02-26T08:28:37.314Z,102647.47
2023-02-26T08:31:04.083Z,102639.94
2023-02-26T08:33:31.178Z,102645.66
2023-02-26T08:35:59.087Z,102651.50
2023-02-26T08:38:27.725Z,102651.94
2023-02-26T08:40:54.389Z,102655.09
2023-02-26T08:43:21.527Z,102668.00
2023-02-26T08:45:48.612Z,102674.78
2023-02-26T08:48:15.377Z,102672.59
2023-02-26T08:50:41.961Z,102674.78
2023-02-26T08:53:08.534Z,102680.41
2023-02-26T08:55:35.030Z,102681.75
2023-02-26T08:58:01.669Z,102688.50
2023-02-26T09:00:28.514Z,102684.63
2023-02-26T09:02:55.065Z,102689.56
2023-02-26T09:05:22.075Z,102700.75
2023-02-26T09:07:48.686Z,102695.09
2023-02-26T09:10:16.207Z,102704.66
2023-02-26T09:12:43.032Z,102706.16
2023-02-26T09:15:10.950Z,102701.56
2023-02-26T09:17:37.768Z,102705.75
2023-02-26T09:20:05.175Z,102711.69
2023-02-26T09:22:31.734Z,102710.34
2023-02-26T09:24:58.546Z,102707.19
2023-02-26T09:27:25.198Z,102715.38
2023-02-26T09:29:51.717Z,102715.66
2023-02-26T09:32:18.440Z,102715.78
2023-02-26T09:34:44.982Z,102723.88
2023-02-26T09:37:11.511Z,102723.91
2023-02-26T09:39:38.121Z,102722.22
2023-02-26T09:42:30.891Z,102726.63
2023-02-26T09:45:00.096Z,102726.47
2023-02-26T09:47:41.859Z,102720.03
2023-02-26T09:50:20.273Z,102722.59
2023-02-26T09:52:54.554Z,102724.31
2023-02-26T09:55:31.620Z,102723.31
2023-02-26T09:58:03.507Z,102735.78
2023-02-26T10:00:43.807Z,102734.03
2023-02-26T10:03:39.939Z,102730.47
2023-02-26T10:06:21.381Z,102739.22
2023-02-26T10:09:26.010Z,102747.25
2023-02-26T10:11:52.373Z,102742.91
2023-02-26T10:14:37.413Z,102753.59
2023-02-26T10:17:16.590Z,102745.59
2023-02-26T10:19:47.822Z,102751.09
2023-02-26T10:22:28.512Z,102752.25
2023-02-26T10:25:23.929Z,102760.63
2023-02-26T10:28:01.690Z,102768.13
2023-02-26T10:31:04.919Z,102777.41
2023-02-26T10:34:07.341Z,102769.50
2023-02-26T10:36:51.959Z,102776.00
2023-02-26T10:39:44.994Z,102770.25
2023-02-26T10:42:33.762Z,102788.63
2023-02-26T10:45:15.693Z,102788.91
2023-02-26T10:47:56.586Z,102783.88
2023-02-26T10:50:24.441Z,102778.88
2023-02-26T10:52:52.784Z,102783.88
2023-02-26T10:55:28.474Z,102786.22
2023-02-26T10:58:24.848Z,102782.41
2023-02-26T11:00:54.259Z,102786.59
2023-02-26T11:03:22.301Z,102782.06
2023-02-26T11:05:48.950Z,102785.47
2023-02-26T11:08:20.700Z,102792.59
2023-02-26T11:10:56.476Z,102813.28
2023-02-26T11:13:26.127Z,102797.13
2023-02-26T11:15:55.222Z,102785.59
2023-02-26T11:18:27.320Z,102791.97
2023-02-26T11:20:58.176Z,102798.34
2023-02-26T11:23:29.626Z,102790.25
2023-02-26T11:26:18.676Z,102788.53
2023-02-26T11:28:53.537Z,102783.91
2023-02-26T11:31:23.136Z,102794.53
2023-02-26T11:33:53.368Z,102782.78
2023-02-26T11:36:22.851Z,102788.16
2023-02-26T11:38:56.429Z,102786.22
2023-02-26T11:41:24.608Z,102783.53
2023-02-26T11:44:05.130Z,102786.22
2023-02-26T11:46:31.749Z,102791.50
2023-02-26T11:49:01.247Z,102785.25
2023-02-26T11:51:29.918Z,102786.13
2023-02-26T11:54:02.814Z,102802.16
2023-02-26T11:56:40.294Z,102794.94
2023-02-26T11:59:16.797Z,102777.66
2023-02-26T12:01:43.402Z,102790.16
2023-02-26T12:04:12.830Z,102786.50
2023-02-26T12:06:40.043Z,102780.97
2023-02-26T12:09:12.696Z,102785.50
2023-02-26T12:12:00.832Z,102781.94
2023-02-26T12:14:36.636Z,102778.16
2023-02-26T12:17:18.782Z,102788.81
2023-02-26T12:20:19.943Z,102789.56
2023-02-26T12:22:55.822Z,102790.19
2023-02-26T12:25:46.390Z,102796.28
2023-02-26T12:28:39.391Z,102788.94
2023-02-26T12:31:18.185Z,102795.81
2023-02-26T12:34:02.336Z,102786.72
2023-02-26T12:36:55.018Z,102788.44
2023-02-26T12:39:37.117Z,102780.97
2023-02-26T12:42:31.417Z,102771.78
2023-02-26T12:45:16.666Z,102776.91
2023-02-26T12:48:05.228Z,102791.59
2023-02-26T12:50:43.856Z,102787.81
2023-02-26T12:53:41.844Z,102775.03
2023-02-26T12:56:26.320Z,102785.44
2023-02-26T12:59:19.048Z,102781.50
2023-02-26T13:02:01.756Z,102782.72
2023-02-26T13:04:56.190Z,102770.94
2023-02-26T13:07:42.290Z,102770.69
2023-02-26T13:10:40.136Z,102781.84
2023-02-26T13:13:47.423Z,102772.75
2023-02-26T13:16:26.234Z,102776.06
2023-02-26T13:19:31.074Z,102771.50
2023-02-26T13:22:03.420Z,102775.69
2023-02-26T13:24:40.231Z,102768.47
2023-02-26T13:27:09.817Z,102777.28
2023-02-26T13:29:44.058Z,102779.13
2023-02-26T13:32:25.877Z,102780.09
2023-02-26T13:35:03.755Z,102782.78
2023-02-26T13:37:55.747Z,102779.59
2023-02-26T13:40:47.133Z,102775.34
2023-02-26T13:43:16.919Z,102776.19
2023-02-26T13:46:00.902Z,102769.59
2023-02-26T13:48:30.023Z,102774.38
2023-02-26T13:51:10.764Z,102769.69
2023-02-26T13:54:02.322Z,102765.44
2023-02-26T13:56:31.582Z,102768.97
2023-02-26T13:59:13.534Z,102761.88
2023-02-26T14:01:53.704Z,102754.75
2023-02-26T14:04:21.514Z,102763.59
2023-02-26T14:06:57.244Z,102754.66
2023-02-26T14:09:23.770Z,102755.50
2023-02-26T14:12:12.950Z,102764.84
2023-02-26T14:14:58.179Z,102765.94
2023-02-26T14:17:39.967Z,102763.38
2023-02-26T14:20:09.056Z,102766.06
2023-02-26T14:22:41.804Z,102759.81
2023-02-26T14:25:34.968Z,102768.31
2023-02-26T14:28:26.758Z,102759.34
2023-02-26T14:31:05.619Z,102774.78
2023-02-26T14:33:44.696Z,102765.00
2023-02-26T14:36:20.223Z,102751.75
2023-02-26T14:38:48.748Z,102763.53
2023-02-26T14:41:36.441Z,102760.94
2023-02-26T14:44:37.274Z,102759.38
2023-02-26T14:47:04.243Z,102772.72
2023-02-26T14:49:37.258Z,102772.97
2023-02-26T14:52:39.429Z,102775.03
2023-02-26T14:55:45.834Z,102775.19
2023-02-26T14:58:31.015Z,102780.72
2023-02-26T15:01:30.699Z,102768.34
2023-02-26T15:04:18.939Z,102770.31
2023-02-26T15:07:13.238Z,102769.44
2023-02-26T15:10:09.729Z,102777.78
2023-02-26T15:13:13.849Z,102781.44
2023-02-26T15:15:46.251Z,102780.59
2023-02-26T15:18:42.354Z,102771.88
2023-02-26T15:21:39.024Z,102782.81
2023-02-26T15:24:07.634Z,102782.94
2023-02-26T15:26:37.256Z,102786.00
2023-02-26T15:29:07.170Z,102782.56
2023-02-26T15:31:43.124Z,102780.25
2023-02-26T15:34:12.876Z,102772.28
2023-02-26T15:36:44.789Z,102783.31
2023-02-26T15:39:16.109Z,102787.19
2023-02-26T15:41:43.282Z,102792.69
2023-02-26T15:44:14.737Z,102792.06
2023-02-26T15:46:45.466Z,102794.03
2023-02-26T15:49:26.826Z,102787.19
2023-02-26T15:51:53.851Z,102791.59
2023-02-26T15:54:24.086Z,102785.47
2023-02-26T15:56:51.330Z,102787.44
2023-02-26T15:59:22.029Z,102785.84
2023-02-26T16:01:50.160Z,102789.50
2023-02-26T16:04:19.840Z,102794.16
2023-02-26T16:06:50.589Z,102799.66
2023-02-26T16:09:31.348Z,102793.53
2023-02-26T16:12:07.804Z,102796.34
2023-02-26T16:14:39.276Z,102798.19
2023-02-26T16:17:11.082Z,102794.63
2023-02-26T16:19:45.862Z,102800.16
2023-02-26T16:22:28.442Z,102802.09
2023-02-26T16:25:02.706Z,102807.47
2023-02-26T16:27:31.865Z,102801.25
2023-02-26T16:30:01.669Z,102803.06
2023-02-26T16:32:33.894Z,102808.59
2023-02-26T16:35:08.159Z,102809.56
2023-02-26T16:37:37.800Z,102812.25
2023-02-26T16:40:19.037Z,102816.81
2023-02-26T16:42:51.565Z,102816.88
2023-02-26T16:45:25.337Z,102822.28
2023-02-26T16:47:56.598Z,102824.47
2023-02-26T16:50:29.573Z,102824.31
2023-02-26T16:53:18.504Z,102821.56
2023-02-26T16:55:56.732Z,102830.91
2023-02-26T16:58:24.189Z,102848.88
2023-02-26T17:00:58.147Z,102843.84
2023-02-26T17:03:26.671Z,102843.13
2023-02-26T17:06:04.363Z,102842.47
2023-02-26T17:08:42.053Z,102855.06
2023-02-26T17:11:21.685Z,102851.63
2023-02-26T17:14:15.351Z,102859.81
2023-02-26T17:16:42.000Z,102871.41
2023-02-26T17:19:09.507Z,102875.16
2023-02-26T17:21:41.944Z,102879.81
2023-02-26T17:24:13.514Z,102871.84
2023-02-26T17:26:40.163Z,102877.53
2023-02-26T17:29:06.889Z,102879.50
2023-02-26T17:31:33.403Z,102886.69
2023-02-26T17:33:59.957Z,102894.13
2023-02-26T17:36:26.669Z,102889.81
2023-02-26T17:38:53.272Z,102892.63
2023-02-26T17:41:19.941Z,102908.97
2023-02-26T17:43:46.582Z,102900.97
2023-02-26T17:46:13.252Z,102907.44
2023-02-26T17:48:40.185Z,102907.53
2023-02-26T17:51:07.289Z,102901.44
2023-02-26T17:53:40.840Z,102910.56
2023-02-26T17:56:11.921Z,102911.66
2023-02-26T17:58:38.584Z,102915.94
2023-02-26T18:01:05.312Z,102908.97
2023-02-26T18:03:32.334Z,102918.06
2023-02-26T18:05:59.785Z,102916.34
2023-02-26T18:08:31.574Z,102922.56
2023-02-26T18:10:59.458Z,102915.38
2023-02-26T18:13:27.205Z,102920.63
2023-02-26T18:15:56.442Z,102917.88
2023-02-26T18:18:24.306Z,102923.13
2023-02-26T18:20:51.981Z,102922.16
2023-02-26T18:23:18.895Z,102926.69
2023-02-26T18:25:47.934Z,102933.78
2023-02-26T18:28:24.315Z,102935.50
2023-02-26T18:30:52.264Z,102930.13
2023-02-26T18:33:20.240Z,102942.59
2023-02-26T18:35:51.214Z,102937.22
2023-02-26T18:38:22.384Z,102935.38
2023-02-26T18:40:49.408Z,102942.59
2023-02-26T18:43:16.058Z,102945.28
2023-02-26T18:45:45.077Z,102942.59
2023-02-26T18:48:15.909Z,102943.56
2023-02-26T18:50:43.906Z,102940.88
2023-02-26T18:53:11.099Z,102939.91
2023-02-26T18:55:37.888Z,102944.28
2023-02-26T18:58:04.927Z,102945.16
2023-02-26T19:00:31.848Z,102946.97
2023-02-26T19:02:58.388Z,102946.13
2023-02-26T19:05:26.573Z,102949.66
2023-02-26T19:07:54.304Z,102951.50
2023-02-26T19:10:21.390Z,102953.34
2023-02-26T19:12:47.947Z,102956.03
2023-02-26T19:15:14.545Z,102955.03
2023-02-26T19:17:42.286Z,102963.09
2023-02-26T19:20:10.687Z,102961.38
2023-02-26T19:22:37.463Z,102962.38
2023-02-26T19:25:05.052Z,102962.44
2023-02-26T19:27:31.971Z,102964.41
2023-02-26T19:29:58.524Z,102969.78
2023-02-26T19:32:26.604Z,102966.28
2023-02-26T19:34:53.225Z,102968.13
2023-02-26T19:37:19.911Z,102966.41
2023-02-26T19:39:46.467Z,102972.75
2023-02-26T19:42:13.130Z,102965.53
2023-02-26T19:44:39.670Z,102966.72
2023-02-26T19:47:06.496Z,102966.72
2023-02-26T19:49:33.510Z,102972.94
2023-02-26T19:52:00.098Z,102979.31
2023-02-26T19:54:26.651Z,102976.50
2023-02-26T19:56:53.212Z,102975.75
2023-02-26T19:59:19.735Z,102975.75
2023-02-26T20:01:49.226Z,102977.66
2023-02-26T20:04:17.160Z,102975.75
2023-02-26T20:06:43.919Z,102977.56
2023-02-26T20:09:12.127Z,102982.00
2023-02-26T20:11:39.620Z,102972.19
2023-02-26T20:14:06.589Z,102982.94
2023-02-26T20:16:33.144Z,102982.06
2023-02-26T20:19:00.164Z,102980.34
2023-02-26T20:21:27.375Z,102977.66
2023-02-26T20:23:54.160Z,102987.56
2023-02-26T20:26:20.856Z,102991.31
2023-02-26T20:28:47.508Z,102998.94
2023-02-26T20:31:14.270Z,102999.25
2023-02-26T20:33:40.985Z,103005.78
2023-02-26T20:36:08.942Z,103004.28
2023-02-26T20:38:35.834Z,102993.81
2023-02-26T20:41:02.838Z,103008.41
2023-02-26T20:43:29.508Z,102998.84
2023-02-26T20:45:56.612Z,103008.94
2023-02-26T20:48:24.308Z,102998.50
2023-02-26T20:50:53.517Z,103011.19
2023-02-26T20:53:21.648Z,103011.47
2023-02-26T20:55:48.726Z,103010.81
2023-02-26T20:58:15.772Z,103019.06
2023-02-26T21:00:42.850Z,103013.88
2023-02-26T21:03:09.470Z,103023.88
2023-02-26T21:05:36.020Z,103020.63
2023-02-26T21:08:04.159Z,103018.16
2023-02-26T21:10:32.686Z,103025.53
2023-02-26T21:12:59.606Z,103021.22
2023-02-26T21:15:26.127Z,103016.03
2023-02-26T21:17:53.123Z,103020.78
2023-02-26T21:20:22.076Z,103019.22
2023-02-26T21:22:49.513Z,103031.00
2023-02-26T21:25:16.668Z,103032.03
2023-02-26T21:27:43.244Z,103034.06
2023-02-26T21:30:12.204Z,103041.41
2023-02-26T21:32:39.452Z,103045.94
2023-02-26T21:35:07.681Z,103038.09
2023-02-26T21:37:34.247Z,103042.78
2023-02-26T21:40:00.845Z,103042.88
2023-02-26T21:42:27.523Z,103038.59
2023-02-26T21:44:54.330Z,103039.75
2023-02-26T21:47:20.839Z,103034.44
2023-02-26T21:49:47.339Z,103047.97
2023-02-26T21:52:14.076Z,103043.66
2023-02-26T21:54:40.935Z,103045.56
2023-02-26T21:57:07.874Z,103036.75
2023-02-26T21:59:35.270Z,103040.50
2023-02-26T22:02:02.709Z,103036.19
2023-02-26T22:04:29.618Z,103029.19
2023-02-26T22:06:56.285Z,103040.00
2023-02-26T22:09:23.001Z,103039.22
2023-02-26T22:11:49.550Z,103040.31
2023-02-26T22:14:16.138Z,103043.06
2023-02-26T22:16:42.808Z,103045.84
2023-02-26T22:19:09.403Z,103041.44
2023-02-26T22:21:35.951Z,103037.13
2023-02-26T22:24:03.817Z,103034.56
2023-02-26T22:26:30.745Z,103034.63
2023-02-26T22:28:59.596Z,103032.06
2023-02-26T22:31:31.761Z,103035.69
2023-02-26T22:33:59.077Z,103034.91
2023-02-26T22:36:25.903Z,103041.22
2023-02-26T22:38:52.489Z,103042.28
2023-02-26T22:41:19.086Z,103054.91
2023-02-26T22:43:45.610Z,103054.91
2023-02-26T22:46:12.247Z,103055.94
2023-02-26T22:48:38.841Z,103053.38
2023-02-26T22:51:05.539Z,103053.44
2023-02-26T22:53:32.214Z,103054.41
2023-02-26T22:55:59.065Z,103060.72
2023-02-26T22:58:25.629Z,103063.50
2023-02-26T23:00:59.378Z,103065.50
2023-02-26T23:03:25.816Z,103068.25
2023-02-26T23:05:52.823Z,103065.41
2023-02-26T23:08:19.374Z,103062.91
2023-02-26T23:10:45.893Z,103065.69
2023-02-26T23:13:12.642Z,103075.53
2023-02-26T23:15:39.182Z,103071.22
2023-02-26T23:18:06.069Z,103068.66
2023-02-26T23:20:32.590Z,103072.28
2023-02-26T23:22:59.094Z,103078.56
2023-02-26T23:25:26.617Z,103077.81
2023-02-26T23:27:53.582Z,103077.81
2023-02-26T23:30:21.891Z,103069.00
2023-02-26T23:32:48.364Z,103072.63
2023-02-26T23:35:15.223Z,103071.84
2023-02-26T23:37:41.797Z,103072.78
2023-02-26T23:40:09.053Z,103076.41
2023-02-26T23:42:35.663Z,103077.38
2023-02-26T23:45:02.201Z,103087.28
2023-02-26T23:47:28.797Z,103081.09
2023-02-26T23:49:55.435Z,103085.56
2023-02-26T23:52:24.949Z,103086.53
2023-02-26T23:54:52.393Z,103085.75
2023-02-26T23:57:18.866Z,103086.72
2023-02-26T23:59:45.401Z,103086.81
